Sydney River, Canada
Current Conditions -  °F | °C
As of 8:00 PM on Sunday 23 Nov 2014 (Local Time) from CYQY Reporting Station
Scattered Clouds Scattered Clouds  
Wind Chill: 32°   Ceiling: Unl
Heat Index: 32°   Visibility: 15mi
Dew Point: 27°   Wind: 3mph
Humidity: 80%   Direction: 210°SSW
Pressure: 30.11"   Gusts: NA
Location:  46.12°N, 60.22°W
Report Text: CYQY 240000Z 21003KT 15SM SCT032 00/M03 A3011 RMK SC3 SLP201
Loading
Personal Weather Stations






























Interactive Weather Map New forecast layout! Learn more

10-Day Weather Forecast

Advertisements
Track Severe Weather on mobile